MSC Regina — 3FGF9 — position and weather

sailwx.info

Track history (hours):
 
Tides and Currents Weather Stations Pressure Air Temp Water Temp Dewpoint Dewpoint Depression Visibility Wind Speed Wind Dir Waves Ship Positions

MSC Regina

Last reported at 2014-Aug-14 07:08 UTC. Time now 2014-Aug-20 16:40 UTC.
Position N 49°21' W 066°07'.

Length 259 m; draft 10.7 m.

Type: Ship (hazmat cat A). MMSI: 357332000.

Date/timePositionNaut miles runAvg speedWind from/ knotsBaromVisibWave heightAir tempDewpointWater temp
2014-Aug-14 07:08N 49°21' W 066°07'1120.1
2014-Aug-14 06:33N 49°18' W 066°25'2020.2
2014-Aug-14 05:33N 49°12' W 066°54'2019.9
2014-Aug-14 04:32N 49°05' W 067°24'1919.9
2014-Aug-14 03:33N 48°57' W 067°50'2020.1
2014-Aug-14 02:33N 48°46' W 068°16'2120.6
2014-Aug-14 01:33N 48°35' W 068°42'2121.0
2014-Aug-14 00:33N 48°22' W 069°08'1514.8
2014-Aug-13 23:33N 48°15' W 069°27'1313.1
2014-Aug-13 22:33N 48°04' W 069°37'1919.4
2014-Aug-13 21:33N 47°47' W 069°50'1818.2
2014-Aug-13 20:33N 47°32' W 070°06'1717.4
2014-Aug-13 19:33N 47°23' W 070°28'1918.7
2014-Aug-13 18:33N 47°07' W 070°42'1716.8
2014-Aug-13 17:33N 46°53' W 070°56'1414.2
2014-Aug-13 16:34N 46°46' W 071°14'1716.9
2014-Aug-13 15:33N 46°40' W 071°37'1312.6
2014-Aug-13 14:33N 46°38' W 071°56'1313.3
2014-Aug-13 13:33N 46°31' W 072°12'1413.5
2014-Aug-13 12:33N 46°23' W 072°27'1211.6
2014-Aug-13 11:33N 46°16' W 072°41'1414.0
2014-Aug-13 10:33N 46°08' W 072°57'1413.8
2014-Aug-13 09:33N 45°58' W 073°12'1413.7
2014-Aug-13 08:33N 45°47' W 073°22'1313.2
2014-Aug-13 07:33N 45°35' W 073°30'0 0.4
2014-Aug-13 06:33N 45°34' W 073°31'0 0.0
2014-Aug-13 05:33N 45°34' W 073°31'0 0.0
2014-Aug-13 04:33N 45°34' W 073°31'0 0.0
2014-Aug-13 03:33N 45°34' W 073°31'0 0.0
2014-Aug-13 02:33N 45°34' W 073°31'0 0.0
2014-Aug-13 01:33N 45°34' W 073°31'0 0.0
2014-Aug-13 00:33N 45°34' W 073°31'0 0.0
2014-Aug-12 23:33N 45°34' W 073°31'0 0.0
2014-Aug-12 22:32N 45°34' W 073°31'0 0.0
2014-Aug-12 21:33N 45°34' W 073°31'0 0.0
2014-Aug-12 20:33N 45°35' W 073°31'0 0.0
2014-Aug-12 19:33N 45°34' W 073°31'0 0.0
2014-Aug-12 18:33N 45°34' W 073°31'0 0.0
2014-Aug-12 17:33N 45°34' W 073°31'0 0.0
2014-Aug-12 16:32N 45°34' W 073°31'0 0.0
2014-Aug-12 15:33N 45°34' W 073°31'0 0.0
2014-Aug-12 14:33N 45°34' W 073°31'0 0.0
2014-Aug-12 13:32N 45°34' W 073°31'0 0.0
2014-Aug-12 12:33N 45°34' W 073°31'0 0.0
2014-Aug-12 11:32N 45°34' W 073°31'0 0.0
2014-Aug-12 10:32N 45°34' W 073°31'0 0.0
2014-Aug-12 09:32N 45°34' W 073°31'0 0.0
2014-Aug-12 08:32N 45°34' W 073°31'0 0.0
2014-Aug-12 07:32N 45°34' W 073°31'0 0.0
2014-Aug-12 06:32N 45°34' W 073°31'0 0.0
2014-Aug-12 05:32N 45°34' W 073°31'0 0.0
2014-Aug-12 04:32N 45°34' W 073°31'0 0.0
2014-Aug-12 03:32N 45°34' W 073°31'0 0.0
2014-Aug-12 02:32N 45°34' W 073°31'0 0.0
2014-Aug-12 01:32N 45°34' W 073°31'0 0.0
2014-Aug-12 00:32N 45°34' W 073°31'0 0.0
2014-Aug-11 23:32N 45°34' W 073°31'0 0.0
2014-Aug-11 22:32N 45°34' W 073°31'0 0.0
2014-Aug-11 21:32N 45°34' W 073°31'0 0.0
2014-Aug-11 20:32N 45°34' W 073°31'0 0.0
2014-Aug-11 19:32N 45°34' W 073°31'0 0.0
2014-Aug-11 18:32N 45°34' W 073°31'0 0.0
2014-Aug-11 17:32N 45°34' W 073°31'0 0.0
2014-Aug-11 16:32N 45°34' W 073°31'0 0.0
2014-Aug-11 15:32N 45°34' W 073°31'0 0.0
2014-Aug-11 14:32N 45°34' W 073°31'0 0.0
2014-Aug-11 13:32N 45°34' W 073°31'0 0.0
2014-Aug-11 12:32N 45°34' W 073°31'0 0.0
2014-Aug-11 11:32N 45°34' W 073°31'0 0.1
2014-Aug-11 10:33N 45°34' W 073°31'5 5.4
2014-Aug-11 09:33N 45°40' W 073°28'8 8.1
2014-Aug-11 08:33N 45°47' W 073°22'9 8.6
2014-Aug-11 07:33N 45°53' W 073°14'9 8.6
2014-Aug-11 06:33N 46°01' W 073°10'8 8.5
2014-Aug-11 05:33N 46°06' W 072°60'9 8.9
2014-Aug-11 04:33N 46°12' W 072°51'10 9.7
2014-Aug-11 03:33N 46°16' W 072°38'6 6.0
2014-Aug-11 02:33N 46°20' W 072°32'9 8.8
2014-Aug-11 01:33N 46°26' W 072°22'7 7.1
2014-Aug-11 00:33N 46°30' W 072°14'8 8.0
2014-Aug-10 23:33N 46°34' W 072°04'1111.1
2014-Aug-10 22:33N 46°41' W 071°51'  
Track history (hours):
 
Tides and Currents Weather Stations Pressure Air Temp Water Temp Dewpoint Dewpoint Depression Visibility Wind Speed Wind Dir Waves Ship Positions

MSC Regina

Last reported at 2014-Aug-14 07:08 UTC. Time now 2014-Aug-20 16:40 UTC.
Position N 49°21' W 066°07'.

Length 259 m; draft 10.7 m.

Type: Ship (hazmat cat A). MMSI: 357332000.

Date/timePositionNaut miles runAvg speedWind from/ knotsBaromVisibWave heightAir tempDewpointWater temp
2014-Aug-14 07:08N 49°21' W 066°07'1120.1
2014-Aug-14 06:33N 49°18' W 066°25'2020.2
2014-Aug-14 05:33N 49°12' W 066°54'2019.9
2014-Aug-14 04:32N 49°05' W 067°24'1919.9
2014-Aug-14 03:33N 48°57' W 067°50'2020.1
2014-Aug-14 02:33N 48°46' W 068°16'2120.6
2014-Aug-14 01:33N 48°35' W 068°42'2121.0
2014-Aug-14 00:33N 48°22' W 069°08'1514.8
2014-Aug-13 23:33N 48°15' W 069°27'1313.1
2014-Aug-13 22:33N 48°04' W 069°37'1919.4
2014-Aug-13 21:33N 47°47' W 069°50'1818.2
2014-Aug-13 20:33N 47°32' W 070°06'1717.4
2014-Aug-13 19:33N 47°23' W 070°28'1918.7
2014-Aug-13 18:33N 47°07' W 070°42'1716.8
2014-Aug-13 17:33N 46°53' W 070°56'1414.2
2014-Aug-13 16:34N 46°46' W 071°14'1716.9
2014-Aug-13 15:33N 46°40' W 071°37'1312.6
2014-Aug-13 14:33N 46°38' W 071°56'1313.3
2014-Aug-13 13:33N 46°31' W 072°12'1413.5
2014-Aug-13 12:33N 46°23' W 072°27'1211.6
2014-Aug-13 11:33N 46°16' W 072°41'1414.0
2014-Aug-13 10:33N 46°08' W 072°57'1413.8
2014-Aug-13 09:33N 45°58' W 073°12'1413.7
2014-Aug-13 08:33N 45°47' W 073°22'1313.2
2014-Aug-13 07:33N 45°35' W 073°30'0 0.4
2014-Aug-13 06:33N 45°34' W 073°31'0 0.0
2014-Aug-13 05:33N 45°34' W 073°31'0 0.0
2014-Aug-13 04:33N 45°34' W 073°31'0 0.0
2014-Aug-13 03:33N 45°34' W 073°31'0 0.0
2014-Aug-13 02:33N 45°34' W 073°31'0 0.0
2014-Aug-13 01:33N 45°34' W 073°31'0 0.0
2014-Aug-13 00:33N 45°34' W 073°31'0 0.0
2014-Aug-12 23:33N 45°34' W 073°31'0 0.0
2014-Aug-12 22:32N 45°34' W 073°31'0 0.0
2014-Aug-12 21:33N 45°34' W 073°31'0 0.0
2014-Aug-12 20:33N 45°35' W 073°31'0 0.0
2014-Aug-12 19:33N 45°34' W 073°31'0 0.0
2014-Aug-12 18:33N 45°34' W 073°31'0 0.0
2014-Aug-12 17:33N 45°34' W 073°31'0 0.0
2014-Aug-12 16:32N 45°34' W 073°31'0 0.0
2014-Aug-12 15:33N 45°34' W 073°31'0 0.0
2014-Aug-12 14:33N 45°34' W 073°31'0 0.0
2014-Aug-12 13:32N 45°34' W 073°31'0 0.0
2014-Aug-12 12:33N 45°34' W 073°31'0 0.0
2014-Aug-12 11:32N 45°34' W 073°31'0 0.0
2014-Aug-12 10:32N 45°34' W 073°31'0 0.0
2014-Aug-12 09:32N 45°34' W 073°31'0 0.0
2014-Aug-12 08:32N 45°34' W 073°31'0 0.0
2014-Aug-12 07:32N 45°34' W 073°31'0 0.0
2014-Aug-12 06:32N 45°34' W 073°31'0 0.0
2014-Aug-12 05:32N 45°34' W 073°31'0 0.0
2014-Aug-12 04:32N 45°34' W 073°31'0 0.0
2014-Aug-12 03:32N 45°34' W 073°31'0 0.0
2014-Aug-12 02:32N 45°34' W 073°31'0 0.0
2014-Aug-12 01:32N 45°34' W 073°31'0 0.0
2014-Aug-12 00:32N 45°34' W 073°31'0 0.0
2014-Aug-11 23:32N 45°34' W 073°31'0 0.0
2014-Aug-11 22:32N 45°34' W 073°31'0 0.0
2014-Aug-11 21:32N 45°34' W 073°31'0 0.0
2014-Aug-11 20:32N 45°34' W 073°31'0 0.0
2014-Aug-11 19:32N 45°34' W 073°31'0 0.0
2014-Aug-11 18:32N 45°34' W 073°31'0 0.0
2014-Aug-11 17:32N 45°34' W 073°31'0 0.0
2014-Aug-11 16:32N 45°34' W 073°31'0 0.0
2014-Aug-11 15:32N 45°34' W 073°31'0 0.0
2014-Aug-11 14:32N 45°34' W 073°31'0 0.0
2014-Aug-11 13:32N 45°34' W 073°31'0 0.0
2014-Aug-11 12:32N 45°34' W 073°31'0 0.0
2014-Aug-11 11:32N 45°34' W 073°31'0 0.1
2014-Aug-11 10:33N 45°34' W 073°31'5 5.4
2014-Aug-11 09:33N 45°40' W 073°28'8 8.1
2014-Aug-11 08:33N 45°47' W 073°22'9 8.6
2014-Aug-11 07:33N 45°53' W 073°14'9 8.6
2014-Aug-11 06:33N 46°01' W 073°10'8 8.5
2014-Aug-11 05:33N 46°06' W 072°60'9 8.9
2014-Aug-11 04:33N 46°12' W 072°51'10 9.7
2014-Aug-11 03:33N 46°16' W 072°38'6 6.0
2014-Aug-11 02:33N 46°20' W 072°32'9 8.8
2014-Aug-11 01:33N 46°26' W 072°22'7 7.1
2014-Aug-11 00:33N 46°30' W 072°14'8 8.0
2014-Aug-10 23:33N 46°34' W 072°04'1111.1
2014-Aug-10 22:33N 46°41' W 071°51'  

Dump ship's entire track history